createdAt,value
2023-02-11T00:01:33.853Z,96522.22
2023-02-11T00:04:02.289Z,96537.44
2023-02-11T00:06:33.580Z,96541.75
2023-02-11T00:09:01.618Z,96541.69
2023-02-11T00:11:30.439Z,96543.50
2023-02-11T00:14:04.606Z,96549.56
2023-02-11T00:16:32.346Z,96543.59
2023-02-11T00:19:01.521Z,96537.69
2023-02-11T00:21:28.962Z,96529.53
2023-02-11T00:23:57.177Z,96540.28
2023-02-11T00:26:28.335Z,96537.97
2023-02-11T00:28:55.339Z,96536.47
2023-02-11T00:31:24.770Z,96530.66
2023-02-11T00:33:53.033Z,96529.75
2023-02-11T00:36:24.104Z,96525.50
2023-02-11T00:38:52.786Z,96523.59
2023-02-11T00:41:20.429Z,96533.00
2023-02-11T00:43:48.607Z,96536.38
2023-02-11T00:46:16.839Z,96541.63
2023-02-11T00:48:44.312Z,96541.34
2023-02-11T00:51:11.379Z,96534.47
2023-02-11T00:53:38.725Z,96535.03
2023-02-11T00:56:06.684Z,96531.22
2023-02-11T00:58:33.972Z,96526.88
2023-02-11T01:01:01.007Z,96530.88
2023-02-11T01:03:28.268Z,96520.53
2023-02-11T01:05:55.680Z,96526.63
2023-02-11T01:08:22.933Z,96524.78
2023-02-11T01:11:05.875Z,96525.44
2023-02-11T01:13:37.268Z,96520.28
2023-02-11T01:16:08.479Z,96520.94
2023-02-11T01:18:36.204Z,96517.47
2023-02-11T01:21:03.839Z,96508.97
2023-02-11T01:23:31.325Z,96512.31
2023-02-11T01:25:58.561Z,96506.28
2023-02-11T01:28:30.133Z,96512.09
2023-02-11T01:31:01.779Z,96501.88
2023-02-11T01:33:29.180Z,96494.91
2023-02-11T01:35:59.745Z,96486.31
2023-02-11T01:38:28.550Z,96492.97
2023-02-11T01:41:04.420Z,96489.38
2023-02-11T01:43:35.745Z,96480.72
2023-02-11T01:46:17.742Z,96478.22
2023-02-11T01:48:49.873Z,96474.72
2023-02-11T01:51:29.749Z,96477.50
2023-02-11T01:54:16.942Z,96477.50
2023-02-11T01:57:08.066Z,96476.56
2023-02-11T01:59:49.193Z,96470.66
2023-02-11T02:02:20.415Z,96469.66
2023-02-11T02:04:58.556Z,96474.63
2023-02-11T02:07:45.768Z,96465.41
2023-02-11T02:10:19.474Z,96463.66
2023-02-11T02:12:46.789Z,96466.97
2023-02-11T02:15:35.022Z,96452.25
2023-02-11T02:18:40.586Z,96459.91
2023-02-11T02:21:54.052Z,96442.59
2023-02-11T02:24:57.865Z,96443.41
2023-02-11T02:27:52.640Z,96424.69
2023-02-11T02:30:57.690Z,96408.50
2023-02-11T02:33:45.340Z,96411.06
2023-02-11T02:36:33.714Z,96410.97
2023-02-11T02:39:09.317Z,96410.22
2023-02-11T02:41:38.629Z,96401.81
2023-02-11T02:44:07.628Z,96402.69
2023-02-11T02:46:36.567Z,96401.81
2023-02-11T02:49:07.835Z,96396.66
2023-02-11T02:52:04.641Z,96401.81
2023-02-11T02:54:37.856Z,96400.09
2023-02-11T02:57:39.369Z,96393.81
2023-02-11T03:00:22.881Z,96379.81
2023-02-11T03:03:35.589Z,96379.00
2023-02-11T03:06:24.107Z,96381.47
2023-02-11T03:08:59.181Z,96369.31
2023-02-11T03:11:28.256Z,96380.28
2023-02-11T03:13:57.011Z,96386.19
2023-02-11T03:16:27.527Z,96388.69
2023-02-11T03:19:04.227Z,96396.31
2023-02-11T03:21:33.782Z,96391.91
2023-02-11T03:24:10.150Z,96398.38
2023-02-11T03:26:54.362Z,96389.41
2023-02-11T03:29:40.817Z,96390.78
2023-02-11T03:32:32.881Z,96382.13
2023-02-11T03:35:13.600Z,96382.78
2023-02-11T03:37:59.353Z,96387.47
2023-02-11T03:40:37.028Z,96381.91
2023-02-11T03:43:32.607Z,96384.31
2023-02-11T03:46:01.816Z,96380.81
2023-02-11T03:48:40.351Z,96372.06
2023-02-11T03:51:11.335Z,96371.84
2023-02-11T03:53:41.765Z,96371.56
2023-02-11T03:56:13.985Z,96367.16
2023-02-11T03:58:40.979Z,96366.22
2023-02-11T04:01:09.838Z,96357.72
2023-02-11T04:03:36.949Z,96356.91
2023-02-11T04:06:07.344Z,96356.69
2023-02-11T04:08:34.838Z,96351.53
2023-02-11T04:11:01.845Z,96348.31
2023-02-11T04:13:29.742Z,96358.66
2023-02-11T04:15:56.837Z,96355.16
2023-02-11T04:18:23.875Z,96355.16
2023-02-11T04:20:51.178Z,96362.16
2023-02-11T04:23:18.360Z,96355.16
2023-02-11T04:25:45.336Z,96360.84
2023-02-11T04:28:12.328Z,96354.75
2023-02-11T04:30:39.348Z,96352.91
2023-02-11T04:33:06.299Z,96345.59
2023-02-11T04:35:33.580Z,96347.47
2023-02-11T04:38:00.474Z,96346.22
2023-02-11T04:40:27.570Z,96340.97
2023-02-11T04:42:54.794Z,96339.41
2023-02-11T04:45:21.749Z,96330.72
2023-02-11T04:47:48.697Z,96337.28
2023-02-11T04:50:15.839Z,96342.53
2023-02-11T04:52:42.795Z,96326.19
2023-02-11T04:55:09.697Z,96328.03
2023-02-11T04:57:36.719Z,96337.38
2023-02-11T05:00:05.954Z,96334.47
2023-02-11T05:02:32.954Z,96318.88
2023-02-11T05:04:59.889Z,96328.00
2023-02-11T05:07:27.053Z,96326.03
2023-02-11T05:09:54.151Z,96314.59
2023-02-11T05:12:21.776Z,96310.88
2023-02-11T05:14:48.712Z,96301.34
2023-02-11T05:17:15.798Z,96302.06
2023-02-11T05:19:42.811Z,96307.97
2023-02-11T05:22:09.949Z,96305.50
2023-02-11T05:24:36.939Z,96307.59
2023-02-11T05:27:03.972Z,96306.66
2023-02-11T05:29:30.918Z,96298.38
2023-02-11T05:32:00.170Z,96289.47
2023-02-11T05:34:27.242Z,96289.91
2023-02-11T05:36:54.361Z,96288.16
2023-02-11T05:39:21.516Z,96285.38
2023-02-11T05:41:48.442Z,96287.66
2023-02-11T05:44:15.474Z,96284.97
2023-02-11T05:46:42.592Z,96268.41
2023-02-11T05:49:09.737Z,96265.41
2023-02-11T05:51:36.690Z,96264.91
2023-02-11T05:54:03.969Z,96257.13
2023-02-11T05:56:30.975Z,96259.38
2023-02-11T05:59:00.049Z,96244.47
2023-02-11T06:01:27.417Z,96252.16
2023-02-11T06:03:54.974Z,96261.47
2023-02-11T06:06:22.212Z,96263.81
2023-02-11T06:08:49.288Z,96266.31
2023-02-11T06:11:17.853Z,96268.69
2023-02-11T06:13:45.558Z,96281.31
2023-02-11T06:16:12.576Z,96272.81
2023-02-11T06:18:39.614Z,96261.44
2023-02-11T06:21:11.721Z,96262.28
2023-02-11T06:23:39.142Z,96265.47
2023-02-11T06:26:09.090Z,96266.19
2023-02-11T06:28:36.201Z,96271.78
2023-02-11T06:31:07.754Z,96268.13
2023-02-11T06:33:35.495Z,96268.97
2023-02-11T06:36:03.506Z,96264.50
2023-02-11T06:38:30.985Z,96274.66
2023-02-11T06:40:59.485Z,96271.22
2023-02-11T06:43:27.631Z,96260.66
2023-02-11T06:45:56.298Z,96278.25
2023-02-11T06:48:24.017Z,96274.63
2023-02-11T06:50:52.113Z,96277.50
2023-02-11T06:53:20.011Z,96274.78
2023-02-11T06:55:46.987Z,96275.53
2023-02-11T06:58:14.391Z,96277.56
2023-02-11T07:00:42.989Z,96286.06
2023-02-11T07:03:10.013Z,96285.81
2023-02-11T07:05:39.017Z,96271.63
2023-02-11T07:08:06.354Z,96266.00
2023-02-11T07:10:34.642Z,96245.75
2023-02-11T07:13:01.538Z,96234.22
2023-02-11T07:15:30.014Z,96238.47
2023-02-11T07:17:57.076Z,96241.69
2023-02-11T07:20:24.298Z,96238.13
2023-02-11T07:22:51.672Z,96230.34
2023-02-11T07:25:18.757Z,96233.09
2023-02-11T07:27:45.867Z,96221.34
2023-02-11T07:30:13.885Z,96219.25
2023-02-11T07:32:40.970Z,96221.38
2023-02-11T07:35:08.000Z,96218.53
2023-02-11T07:37:35.613Z,96225.78
2023-02-11T07:40:03.161Z,96230.97
2023-02-11T07:42:30.197Z,96243.38
2023-02-11T07:44:57.115Z,96230.53
2023-02-11T07:47:24.348Z,96236.91
2023-02-11T07:49:51.232Z,96233.84
2023-02-11T07:52:18.482Z,96230.53
2023-02-11T07:54:45.924Z,96244.72
2023-02-11T07:57:12.967Z,96245.03
2023-02-11T07:59:39.872Z,96240.34
2023-02-11T08:02:06.919Z,96242.22
2023-02-11T08:04:33.970Z,96237.47
2023-02-11T08:07:00.929Z,96240.91
2023-02-11T08:09:27.864Z,96245.38
2023-02-11T08:11:54.753Z,96239.09
2023-02-11T08:14:25.155Z,96235.88
2023-02-11T08:16:52.114Z,96234.91
2023-02-11T08:19:19.222Z,96238.91
2023-02-11T08:21:47.041Z,96223.75
2023-02-11T08:24:14.126Z,96229.53
2023-02-11T08:26:42.201Z,96238.50
2023-02-11T08:29:13.448Z,96226.06
2023-02-11T08:31:43.806Z,96235.34
2023-02-11T08:34:14.059Z,96252.56
2023-02-11T08:36:43.334Z,96239.16
2023-02-11T08:39:23.323Z,96237.13
2023-02-11T08:41:53.451Z,96247.03
2023-02-11T08:44:21.974Z,96239.69
2023-02-11T08:46:49.958Z,96243.44
2023-02-11T08:49:17.407Z,96245.81
2023-02-11T08:51:45.063Z,96253.13
2023-02-11T08:54:12.840Z,96242.66
2023-02-11T08:56:40.175Z,96247.91
2023-02-11T08:59:09.522Z,96245.47
2023-02-11T09:01:36.742Z,96243.03
2023-02-11T09:04:03.913Z,96241.44
2023-02-11T09:06:31.635Z,96234.59
2023-02-11T09:08:58.754Z,96247.13
2023-02-11T09:11:32.555Z,96234.38
2023-02-11T09:14:01.417Z,96238.66
2023-02-11T09:16:32.627Z,96238.81
2023-02-11T09:19:02.130Z,96233.63
2023-02-11T09:21:30.327Z,96240.75
2023-02-11T09:23:57.513Z,96237.75
2023-02-11T09:26:28.910Z,96233.34
2023-02-11T09:28:56.543Z,96236.25
2023-02-11T09:31:26.156Z,96224.31
2023-02-11T09:33:57.510Z,96232.53
2023-02-11T09:36:28.839Z,96238.31
2023-02-11T09:38:59.534Z,96213.31
2023-02-11T09:41:35.897Z,96224.97
2023-02-11T09:44:07.329Z,96213.72
2023-02-11T09:46:42.219Z,96221.97
2023-02-11T09:49:19.658Z,96232.13
2023-02-11T09:52:02.322Z,96224.00
2023-02-11T09:54:53.179Z,96226.63
2023-02-11T09:57:28.553Z,96224.16
2023-02-11T09:59:57.753Z,96234.03
2023-02-11T10:06:49.383Z,96246.66
2023-02-11T10:09:48.506Z,96244.31
2023-02-11T10:12:21.328Z,96250.06
2023-02-11T10:15:08.924Z,96227.38
2023-02-11T10:17:51.000Z,96220.50
2023-02-11T10:20:38.632Z,96221.75
2023-02-11T10:23:20.884Z,96211.84
2023-02-11T10:25:54.476Z,96219.63
2023-02-11T10:28:25.045Z,96213.25
2023-02-11T10:31:05.703Z,96224.91
2023-02-11T10:33:49.892Z,96209.59
2023-02-11T10:36:19.168Z,96213.72
2023-02-11T10:38:46.403Z,96216.03
2023-02-11T10:41:31.190Z,96237.63
2023-02-11T10:44:03.141Z,96216.88
2023-02-11T10:46:34.103Z,96210.78
2023-02-11T10:49:01.210Z,96214.34
2023-02-11T10:51:34.383Z,96201.66
2023-02-11T10:54:03.997Z,96215.66
2023-02-11T10:56:36.676Z,96203.81
2023-02-11T10:59:28.454Z,96200.69
2023-02-11T11:02:22.060Z,96219.59
2023-02-11T11:04:49.197Z,96203.38
2023-02-11T11:07:30.772Z,96197.31
2023-02-11T11:10:08.433Z,96197.53
2023-02-11T11:12:48.763Z,96193.16
2023-02-11T11:15:22.212Z,96195.38
2023-02-11T11:17:51.789Z,96188.03
2023-02-11T11:20:23.879Z,96188.47
2023-02-11T11:23:08.287Z,96176.97
2023-02-11T11:25:39.944Z,96176.56
2023-02-11T11:28:20.649Z,96160.31
2023-02-11T11:30:48.362Z,96162.81
2023-02-11T11:33:27.109Z,96185.59
2023-02-11T11:36:20.263Z,96155.59
2023-02-11T11:38:54.594Z,96148.06
2023-02-11T11:41:27.779Z,96146.13
2023-02-11T11:44:02.824Z,96144.81
2023-02-11T11:46:41.988Z,96147.78
2023-02-11T11:49:33.727Z,96129.72
2023-02-11T11:52:22.444Z,96139.59
2023-02-11T11:55:03.491Z,96137.16
2023-02-11T11:57:34.296Z,96126.19
2023-02-11T12:00:01.689Z,96127.88
2023-02-11T12:02:56.207Z,96118.28
2023-02-11T12:05:50.766Z,96106.53
2023-02-11T12:08:34.093Z,96100.66
2023-02-11T12:11:51.645Z,96102.13
2023-02-11T12:14:38.636Z,96095.91
2023-02-11T12:17:26.130Z,96097.03
2023-02-11T12:20:12.726Z,96102.09
2023-02-11T12:23:09.246Z,96101.28
2023-02-11T12:25:54.475Z,96107.00
2023-02-11T12:28:39.034Z,96107.97
2023-02-11T12:31:44.780Z,96110.75
2023-02-11T12:35:01.242Z,96114.81
2023-02-11T12:38:18.812Z,96123.00
2023-02-11T12:41:51.027Z,96126.94
2023-02-11T12:44:42.389Z,96139.38
2023-02-11T12:48:01.287Z,96126.41
2023-02-11T12:50:44.757Z,96127.34
2023-02-11T12:53:44.797Z,96132.69
2023-02-11T12:56:31.651Z,96123.31
2023-02-11T12:59:01.740Z,96134.56
2023-02-11T13:01:40.806Z,96125.00
2023-02-11T13:04:36.005Z,96136.66
2023-02-11T13:07:12.728Z,96129.09
2023-02-11T13:09:53.144Z,96129.78
2023-02-11T13:12:38.680Z,96121.75
2023-02-11T13:15:13.664Z,96127.28
2023-02-11T13:18:19.119Z,96117.09
2023-02-11T13:21:15.143Z,96131.81
2023-02-11T13:24:29.796Z,96114.56
2023-02-11T13:27:08.888Z,96130.28
2023-02-11T13:30:05.130Z,96120.06
2023-02-11T13:32:53.830Z,96125.66
2023-02-11T13:35:35.425Z,96115.28
2023-02-11T13:38:06.411Z,96122.59
2023-02-11T13:40:39.282Z,96110.22
2023-02-11T13:43:20.635Z,96104.03
2023-02-11T13:45:49.883Z,96102.72
2023-02-11T13:48:32.042Z,96099.94
2023-02-11T13:51:06.487Z,96094.63
2023-02-11T13:53:57.967Z,96079.53
2023-02-11T13:56:39.782Z,96082.06
2023-02-11T13:59:31.820Z,96073.19
2023-02-11T14:02:40.266Z,96067.88
2023-02-11T14:05:25.780Z,96102.13
2023-02-11T14:08:26.388Z,96067.41
2023-02-11T14:10:58.333Z,96054.09
2023-02-11T14:13:28.988Z,96053.56
2023-02-11T14:16:13.598Z,96043.44
2023-02-11T14:18:49.854Z,96049.41
2023-02-11T14:21:32.452Z,96042.97
2023-02-11T14:24:02.437Z,96051.97
2023-02-11T14:26:36.542Z,96063.91
2023-02-11T14:29:30.090Z,96053.53
2023-02-11T14:32:06.252Z,96064.78
2023-02-11T14:34:54.571Z,96066.28
2023-02-11T14:38:00.123Z,96067.97
2023-02-11T14:40:35.219Z,96069.03
2023-02-11T14:43:13.800Z,96070.28
2023-02-11T14:45:42.830Z,96077.97
2023-02-11T14:48:17.981Z,96076.84
2023-02-11T14:51:26.571Z,96084.16
2023-02-11T14:54:00.558Z,96090.63
2023-02-11T14:56:34.442Z,96094.31
2023-02-11T14:59:02.625Z,96103.38
2023-02-11T15:01:34.072Z,96102.00
2023-02-11T15:04:04.020Z,96097.63
2023-02-11T15:06:39.343Z,96103.13
2023-02-11T15:09:18.599Z,96107.28
2023-02-11T15:11:51.680Z,96107.69
2023-02-11T15:14:28.870Z,96102.78
2023-02-11T15:17:00.342Z,96091.50
2023-02-11T15:19:44.329Z,96097.81
2023-02-11T15:22:26.337Z,96111.03
2023-02-11T15:25:16.717Z,96090.34
2023-02-11T15:27:48.438Z,96105.13
2023-02-11T15:30:24.839Z,96106.09
2023-02-11T15:33:03.675Z,96117.91
2023-02-11T15:35:38.546Z,96106.38
2023-02-11T15:38:05.787Z,96084.69
2023-02-11T15:40:35.951Z,96083.19
2023-02-11T15:43:07.487Z,96095.44
2023-02-11T15:45:39.752Z,96086.09
2023-02-11T15:48:26.824Z,96082.78
2023-02-11T15:51:01.904Z,96086.78
2023-02-11T15:53:33.391Z,96098.03
2023-02-11T15:56:26.448Z,96088.16
2023-02-11T15:58:59.988Z,96091.44
2023-02-11T16:01:36.396Z,96101.03
2023-02-11T16:04:05.698Z,96117.25
2023-02-11T16:06:42.435Z,96096.38
2023-02-11T16:09:10.160Z,96104.91
2023-02-11T16:11:47.346Z,96110.53
2023-02-11T16:14:33.768Z,96117.66
2023-02-11T16:17:06.460Z,96126.72
2023-02-11T16:19:35.169Z,96113.94
2023-02-11T16:22:09.964Z,96114.22
2023-02-11T16:24:38.905Z,96130.69
2023-02-11T16:27:24.590Z,96134.53
2023-02-11T16:29:52.525Z,96128.06
2023-02-11T16:32:23.172Z,96130.28
2023-02-11T16:34:50.991Z,96132.47
2023-02-11T16:37:18.288Z,96137.25
2023-02-11T16:39:45.340Z,96139.75
2023-02-11T16:42:12.652Z,96137.94
2023-02-11T16:44:39.826Z,96148.78
2023-02-11T16:47:18.529Z,96134.69
2023-02-11T16:49:45.563Z,96156.06
2023-02-11T16:52:16.799Z,96168.69
2023-02-11T16:54:43.753Z,96171.31
2023-02-11T16:57:24.378Z,96160.31
2023-02-11T16:59:52.474Z,96157.31
2023-02-11T17:02:31.687Z,96185.28
2023-02-11T17:05:06.353Z,96174.06
2023-02-11T17:07:33.629Z,96181.06
2023-02-11T17:10:00.821Z,96176.41
2023-02-11T17:12:27.795Z,96182.44
2023-02-11T17:14:54.929Z,96196.03
2023-02-11T17:17:24.625Z,96180.06
2023-02-11T17:19:51.700Z,96188.19
2023-02-11T17:22:19.007Z,96197.81
2023-02-11T17:24:46.214Z,96192.72
2023-02-11T17:27:13.830Z,96192.06
2023-02-11T17:29:41.118Z,96189.69
2023-02-11T17:32:08.167Z,96191.50
2023-02-11T17:34:35.279Z,96182.28
2023-02-11T17:37:08.785Z,96203.84
2023-02-11T17:39:40.085Z,96190.09
2023-02-11T17:42:08.542Z,96189.69
2023-02-11T17:44:35.678Z,96194.34
2023-02-11T17:47:02.643Z,96188.31
2023-02-11T17:49:29.688Z,96205.03
2023-02-11T17:51:56.774Z,96206.84
2023-02-11T17:54:24.763Z,96199.56
2023-02-11T17:56:55.114Z,96213.97
2023-02-11T17:59:25.232Z,96213.69
2023-02-11T18:01:52.378Z,96217.25
2023-02-11T18:04:20.317Z,96212.16
2023-02-11T18:06:47.708Z,96202.56
2023-02-11T18:09:14.695Z,96216.13
2023-02-11T18:11:42.255Z,96217.09
2023-02-11T18:14:11.041Z,96211.19
2023-02-11T18:16:39.849Z,96228.59
2023-02-11T18:19:07.803Z,96223.53
2023-02-11T18:21:35.264Z,96228.56
2023-02-11T18:24:06.493Z,96229.38
2023-02-11T18:26:34.761Z,96217.97
2023-02-11T18:29:03.725Z,96235.94
2023-02-11T18:31:30.820Z,96226.84
2023-02-11T18:33:57.985Z,96227.00
2023-02-11T18:36:25.004Z,96228.34
2023-02-11T18:38:53.653Z,96240.69
2023-02-11T18:41:21.411Z,96234.03
2023-02-11T18:43:48.601Z,96244.59
2023-02-11T18:46:16.223Z,96239.13
2023-02-11T18:48:45.003Z,96245.75
2023-02-11T18:51:20.695Z,96239.59
2023-02-11T18:53:47.723Z,96237.97
2023-02-11T18:56:20.198Z,96238.25
2023-02-11T18:58:48.330Z,96250.19
2023-02-11T19:01:27.914Z,96258.75
2023-02-11T19:03:57.626Z,96249.28
2023-02-11T19:06:28.293Z,96264.81
2023-02-11T19:08:59.899Z,96269.50
2023-02-11T19:11:47.688Z,96277.44
2023-02-11T19:14:28.278Z,96279.66
2023-02-11T19:16:58.312Z,96272.16
2023-02-11T19:19:28.638Z,96283.81
2023-02-11T19:21:56.538Z,96285.22
2023-02-11T19:24:24.216Z,96288.78
2023-02-11T19:26:53.875Z,96300.28
2023-02-11T19:29:21.211Z,96287.25
2023-02-11T19:31:48.344Z,96282.03
2023-02-11T19:34:16.847Z,96289.59
2023-02-11T19:36:44.059Z,96284.25
2023-02-11T19:39:11.499Z,96293.59
2023-02-11T19:41:38.925Z,96292.88
2023-02-11T19:44:07.747Z,96290.13
2023-02-11T19:46:38.321Z,96291.22
2023-02-11T19:49:05.675Z,96299.75
2023-02-11T19:51:33.874Z,96300.56
2023-02-11T19:54:00.857Z,96288.94
2023-02-11T19:56:28.609Z,96292.34
2023-02-11T19:58:55.658Z,96293.06
2023-02-11T20:01:24.449Z,96295.81
2023-02-11T20:03:54.120Z,96301.81
2023-02-11T20:06:25.431Z,96300.47
2023-02-11T20:08:58.866Z,96306.63
2023-02-11T20:11:29.421Z,96304.28
2023-02-11T20:13:57.954Z,96309.78
2023-02-11T20:16:44.559Z,96311.94
2023-02-11T20:19:17.744Z,96322.78
2023-02-11T20:21:48.578Z,96317.00
2023-02-11T20:24:17.901Z,96319.03
2023-02-11T20:26:48.017Z,96317.53
2023-02-11T20:29:17.233Z,96312.84
2023-02-11T20:31:44.790Z,96312.78
2023-02-11T20:34:12.439Z,96311.97
2023-02-11T20:36:40.446Z,96310.31
2023-02-11T20:39:07.790Z,96308.06
2023-02-11T20:41:39.136Z,96310.41
2023-02-11T20:44:08.368Z,96321.75
2023-02-11T20:46:40.290Z,96310.78
2023-02-11T20:49:13.372Z,96312.00
2023-02-11T20:51:41.007Z,96310.78
2023-02-11T20:54:17.726Z,96315.56
2023-02-11T20:56:47.959Z,96306.91
2023-02-11T20:59:16.866Z,96316.38
2023-02-11T21:01:48.375Z,96305.13
2023-02-11T21:04:27.675Z,96296.88
2023-02-11T21:06:59.372Z,96301.00
2023-02-11T21:09:31.282Z,96313.09
2023-02-11T21:11:59.043Z,96305.53
2023-02-11T21:14:27.109Z,96315.94
2023-02-11T21:16:54.378Z,96315.81
2023-02-11T21:19:21.594Z,96314.72
2023-02-11T21:21:48.915Z,96314.84
2023-02-11T21:24:16.021Z,96312.25
2023-02-11T21:26:43.039Z,96319.38
2023-02-11T21:29:10.455Z,96327.19
2023-02-11T21:31:38.060Z,96321.47
2023-02-11T21:34:05.907Z,96325.28
2023-02-11T21:36:33.306Z,96316.63
2023-02-11T21:39:01.715Z,96333.34
2023-02-11T21:41:28.794Z,96322.81
2023-02-11T21:43:56.577Z,96326.22
2023-02-11T21:46:24.029Z,96330.47
2023-02-11T21:48:51.008Z,96333.47
2023-02-11T21:51:22.225Z,96335.56
2023-02-11T21:53:57.697Z,96323.75
2023-02-11T21:56:29.121Z,96319.38
2023-02-11T21:58:59.067Z,96323.75
2023-02-11T22:01:33.238Z,96316.06
2023-02-11T22:04:00.608Z,96325.06
2023-02-11T22:06:31.295Z,96340.25
2023-02-11T22:09:05.105Z,96335.31
2023-02-11T22:11:32.159Z,96328.06
2023-02-11T22:13:59.646Z,96329.94
2023-02-11T22:16:27.664Z,96332.69
2023-02-11T22:18:58.491Z,96333.38
2023-02-11T22:21:26.079Z,96335.31
2023-02-11T22:23:55.755Z,96339.66
2023-02-11T22:26:24.748Z,96332.69
2023-02-11T22:28:52.373Z,96341.59
2023-02-11T22:31:32.642Z,96341.59
2023-02-11T22:34:00.808Z,96352.81
2023-02-11T22:36:37.494Z,96359.91
2023-02-11T22:39:09.042Z,96352.00
2023-02-11T22:41:38.142Z,96362.16
2023-02-11T22:44:05.393Z,96376.25
2023-02-11T22:46:32.580Z,96379.81
2023-02-11T22:48:59.716Z,96391.88
2023-02-11T22:51:29.085Z,96395.56
2023-02-11T22:53:58.126Z,96392.00
2023-02-11T22:56:27.890Z,96398.88
2023-02-11T22:58:58.835Z,96398.59
2023-02-11T23:01:26.346Z,96395.06
2023-02-11T23:03:53.256Z,96396.59
2023-02-11T23:06:20.218Z,96388.78
2023-02-11T23:08:48.087Z,96405.81
2023-02-11T23:11:19.227Z,96389.47
2023-02-11T23:13:49.037Z,96392.91
2023-02-11T23:16:20.344Z,96388.44
2023-02-11T23:18:48.767Z,96376.34
2023-02-11T23:21:23.622Z,96382.47
2023-02-11T23:24:00.113Z,96383.44
2023-02-11T23:26:28.677Z,96389.38
2023-02-11T23:28:58.236Z,96383.22
2023-02-11T23:31:34.104Z,96390.66
2023-02-11T23:34:01.887Z,96390.53
2023-02-11T23:36:30.734Z,96392.75
2023-02-11T23:38:57.926Z,96383.41
2023-02-11T23:41:25.348Z,96390.25
2023-02-11T23:43:55.753Z,96389.72
2023-02-11T23:46:24.668Z,96394.50
2023-02-11T23:48:52.415Z,96392.38
2023-02-11T23:51:19.897Z,96401.72
2023-02-11T23:53:49.117Z,96405.72
2023-02-11T23:56:23.491Z,96415.88
2023-02-11T23:58:53.144Z,96417.50
